sensor_id;sensor_type;location;lat;lon;timestamp;pressure;altitude;pressure_sealevel;temperature;humidity
37202;BME280;37799;52.390;6.136;2023-09-08T00:00:08;101734.53;;;16.85;100.00
37202;BME280;37799;52.390;6.136;2023-09-08T00:02:34;101739.63;;;16.88;100.00
37202;BME280;37799;52.390;6.136;2023-09-08T00:04:59;101736.84;;;16.93;100.00
37202;BME280;37799;52.390;6.136;2023-09-08T00:07:25;101734.06;;;16.97;100.00
37202;BME280;37799;52.390;6.136;2023-09-08T00:09:50;101732.81;;;17.07;100.00
37202;BME280;37799;52.390;6.136;2023-09-08T00:12:16;101731.81;;;17.10;100.00
37202;BME280;37799;52.390;6.136;2023-09-08T00:14:42;101733.22;;;17.19;100.00
37202;BME280;37799;52.390;6.136;2023-09-08T00:17:07;101727.81;;;17.23;100.00
37202;BME280;37799;52.390;6.136;2023-09-08T00:19:32;101728.72;;;17.22;100.00
37202;BME280;37799;52.390;6.136;2023-09-08T00:21:58;101734.81;;;17.23;100.00
37202;BME280;37799;52.390;6.136;2023-09-08T00:24:24;101738.44;;;17.19;100.00
37202;BME280;37799;52.390;6.136;2023-09-08T00:26:49;101745.50;;;17.17;100.00
37202;BME280;37799;52.390;6.136;2023-09-08T00:29:14;101743.81;;;17.16;100.00
37202;BME280;37799;52.390;6.136;2023-09-08T00:31:40;101742.88;;;17.17;100.00
37202;BME280;37799;52.390;6.136;2023-09-08T00:34:06;101743.94;;;17.13;100.00
37202;BME280;37799;52.390;6.136;2023-09-08T00:36:31;101741.25;;;17.14;100.00
37202;BME280;37799;52.390;6.136;2023-09-08T00:38:57;101736.88;;;17.15;100.00
37202;BME280;37799;52.390;6.136;2023-09-08T00:41:22;101735.41;;;17.07;100.00
37202;BME280;37799;52.390;6.136;2023-09-08T00:43:49;101740.09;;;16.99;100.00
37202;BME280;37799;52.390;6.136;2023-09-08T00:46:14;101738.38;;;16.98;100.00
37202;BME280;37799;52.390;6.136;2023-09-08T00:48:41;101746.34;;;16.95;100.00
37202;BME280;37799;52.390;6.136;2023-09-08T00:51:08;101736.94;;;16.90;100.00
37202;BME280;37799;52.390;6.136;2023-09-08T00:53:35;101727.59;;;16.84;100.00
37202;BME280;37799;52.390;6.136;2023-09-08T00:56:00;101738.25;;;16.78;100.00
37202;BME280;37799;52.390;6.136;2023-09-08T00:58:27;101731.44;;;16.74;100.00
37202;BME280;37799;52.390;6.136;2023-09-08T01:00:52;101729.63;;;16.76;100.00
37202;BME280;37799;52.390;6.136;2023-09-08T01:03:18;101730.22;;;16.84;100.00
37202;BME280;37799;52.390;6.136;2023-09-08T01:05:43;101727.53;;;16.86;100.00
37202;BME280;37799;52.390;6.136;2023-09-08T01:08:12;101726.66;;;16.85;100.00
37202;BME280;37799;52.390;6.136;2023-09-08T01:10:38;101724.00;;;16.87;100.00
37202;BME280;37799;52.390;6.136;2023-09-08T01:13:04;101720.53;;;16.86;100.00
37202;BME280;37799;52.390;6.136;2023-09-08T01:15:29;101726.50;;;16.90;100.00
37202;BME280;37799;52.390;6.136;2023-09-08T01:17:55;101725.50;;;16.92;100.00
37202;BME280;37799;52.390;6.136;2023-09-08T01:20:24;101728.69;;;17.00;100.00
37202;BME280;37799;52.390;6.136;2023-09-08T01:23:09;101731.88;;;17.08;100.00
37202;BME280;37799;52.390;6.136;2023-09-08T01:25:44;101735.41;;;17.07;100.00
37202;BME280;37799;52.390;6.136;2023-09-08T01:28:12;101732.09;;;17.02;100.00
37202;BME280;37799;52.390;6.136;2023-09-08T01:30:38;101726.22;;;16.97;100.00
37202;BME280;37799;52.390;6.136;2023-09-08T01:33:04;101721.03;;;16.96;100.00
37202;BME280;37799;52.390;6.136;2023-09-08T01:35:30;101723.81;;;16.91;100.00
37202;BME280;37799;52.390;6.136;2023-09-08T01:37:56;101724.66;;;16.92;100.00
37202;BME280;37799;52.390;6.136;2023-09-08T01:40:21;101722.88;;;16.94;100.00
37202;BME280;37799;52.390;6.136;2023-09-08T01:42:47;101717.00;;;16.87;100.00
37202;BME280;37799;52.390;6.136;2023-09-08T01:45:14;101721.38;;;16.87;100.00
37202;BME280;37799;52.390;6.136;2023-09-08T01:47:39;101720.78;;;16.80;100.00
37202;BME280;37799;52.390;6.136;2023-09-08T01:50:05;101716.34;;;16.82;100.00
37202;BME280;37799;52.390;6.136;2023-09-08T01:52:30;101720.88;;;16.77;100.00
37202;BME280;37799;52.390;6.136;2023-09-08T01:54:56;101722.88;;;16.70;100.00
37202;BME280;37799;52.390;6.136;2023-09-08T01:57:21;101720.56;;;16.61;100.00
37202;BME280;37799;52.390;6.136;2023-09-08T01:59:46;101724.94;;;16.61;100.00
37202;BME280;37799;52.390;6.136;2023-09-08T02:02:13;101726.75;;;16.59;100.00
37202;BME280;37799;52.390;6.136;2023-09-08T02:04:38;101730.72;;;16.45;100.00
37202;BME280;37799;52.390;6.136;2023-09-08T02:07:03;101730.91;;;16.41;100.00
37202;BME280;37799;52.390;6.136;2023-09-08T02:09:37;101723.34;;;16.33;100.00
37202;BME280;37799;52.390;6.136;2023-09-08T02:12:03;101717.50;;;16.25;100.00
37202;BME280;37799;52.390;6.136;2023-09-08T02:14:29;101717.84;;;16.16;100.00
37202;BME280;37799;52.390;6.136;2023-09-08T02:16:55;101717.94;;;16.13;100.00
37202;BME280;37799;52.390;6.136;2023-09-08T02:19:20;101716.53;;;16.04;100.00
37202;BME280;37799;52.390;6.136;2023-09-08T02:21:46;101711.50;;;15.98;100.00
37202;BME280;37799;52.390;6.136;2023-09-08T02:24:11;101716.88;;;15.93;100.00
37202;BME280;37799;52.390;6.136;2023-09-08T02:26:38;101711.72;;;15.92;100.00
37202;BME280;37799;52.390;6.136;2023-09-08T02:29:03;101712.50;;;15.94;100.00
37202;BME280;37799;52.390;6.136;2023-09-08T02:31:29;101713.47;;;15.91;100.00
37202;BME280;37799;52.390;6.136;2023-09-08T02:33:54;101707.59;;;15.85;100.00
37202;BME280;37799;52.390;6.136;2023-09-08T02:36:19;101714.78;;;15.78;100.00
37202;BME280;37799;52.390;6.136;2023-09-08T02:38:52;101709.72;;;15.74;100.00
37202;BME280;37799;52.390;6.136;2023-09-08T02:41:17;101708.16;;;15.68;100.00
37202;BME280;37799;52.390;6.136;2023-09-08T02:43:42;101706.66;;;15.61;100.00
37202;BME280;37799;52.390;6.136;2023-09-08T02:46:08;101704.22;;;15.55;100.00
37202;BME280;37799;52.390;6.136;2023-09-08T02:48:34;101710.47;;;15.49;100.00
37202;BME280;37799;52.390;6.136;2023-09-08T02:51:00;101709.00;;;15.42;100.00
37202;BME280;37799;52.390;6.136;2023-09-08T02:53:25;101709.00;;;15.42;100.00
37202;BME280;37799;52.390;6.136;2023-09-08T02:55:57;101705.53;;;15.42;100.00
37202;BME280;37799;52.390;6.136;2023-09-08T02:58:22;101709.03;;;15.41;100.00
37202;BME280;37799;52.390;6.136;2023-09-08T03:00:48;101706.59;;;15.34;100.00
37202;BME280;37799;52.390;6.136;2023-09-08T03:03:13;101706.81;;;15.28;100.00
37202;BME280;37799;52.390;6.136;2023-09-08T03:05:38;101713.13;;;15.21;100.00
37202;BME280;37799;52.390;6.136;2023-09-08T03:08:04;101704.59;;;15.16;100.00
37202;BME280;37799;52.390;6.136;2023-09-08T03:10:30;101702.88;;;15.15;100.00
37202;BME280;37799;52.390;6.136;2023-09-08T03:13:00;101703.00;;;15.12;100.00
37202;BME280;37799;52.390;6.136;2023-09-08T03:15:26;101705.66;;;15.09;100.00
37202;BME280;37799;52.390;6.136;2023-09-08T03:17:54;101707.56;;;15.04;100.00
37202;BME280;37799;52.390;6.136;2023-09-08T03:20:19;101706.03;;;14.98;100.00
37202;BME280;37799;52.390;6.136;2023-09-08T03:22:45;101708.91;;;14.89;100.00
37202;BME280;37799;52.390;6.136;2023-09-08T03:25:10;101716.88;;;14.85;100.00
37202;BME280;37799;52.390;6.136;2023-09-08T03:27:35;101715.22;;;14.81;100.00
37202;BME280;37799;52.390;6.136;2023-09-08T03:30:01;101705.84;;;14.75;100.00
37202;BME280;37799;52.390;6.136;2023-09-08T03:32:26;101712.94;;;14.70;100.00
37202;BME280;37799;52.390;6.136;2023-09-08T03:34:53;101704.34;;;14.66;100.00
37202;BME280;37799;52.390;6.136;2023-09-08T03:37:19;101714.97;;;14.60;100.00
37202;BME280;37799;52.390;6.136;2023-09-08T03:39:44;101716.75;;;14.58;100.00
37202;BME280;37799;52.390;6.136;2023-09-08T03:42:09;101713.28;;;14.59;100.00
37202;BME280;37799;52.390;6.136;2023-09-08T03:44:35;101705.44;;;14.59;100.00
37202;BME280;37799;52.390;6.136;2023-09-08T03:47:00;101711.53;;;14.58;100.00
37202;BME280;37799;52.390;6.136;2023-09-08T03:49:26;101699.44;;;14.56;100.00
37202;BME280;37799;52.390;6.136;2023-09-08T03:51:51;101702.94;;;14.55;100.00
37202;BME280;37799;52.390;6.136;2023-09-08T03:54:16;101698.59;;;14.55;100.00
37202;BME280;37799;52.390;6.136;2023-09-08T03:56:42;101695.03;;;14.59;100.00
37202;BME280;37799;52.390;6.136;2023-09-08T03:59:07;101696.63;;;14.63;100.00
37202;BME280;37799;52.390;6.136;2023-09-08T04:01:32;101699.72;;;14.76;100.00
37202;BME280;37799;52.390;6.136;2023-09-08T04:03:57;101694.28;;;14.84;100.00
37202;BME280;37799;52.390;6.136;2023-09-08T04:06:23;101695.81;;;14.91;100.00
37202;BME280;37799;52.390;6.136;2023-09-08T04:08:49;101697.34;;;14.98;100.00
37202;BME280;37799;52.390;6.136;2023-09-08T04:11:14;101704.91;;;15.05;100.00
37202;BME280;37799;52.390;6.136;2023-09-08T04:13:40;101694.38;;;15.09;100.00
37202;BME280;37799;52.390;6.136;2023-09-08T04:16:05;101706.56;;;15.08;100.00
37202;BME280;37799;52.390;6.136;2023-09-08T04:18:30;101700.38;;;15.12;100.00
37202;BME280;37799;52.390;6.136;2023-09-08T04:20:56;101691.53;;;15.16;100.00
37202;BME280;37799;52.390;6.136;2023-09-08T04:23:21;101697.22;;;15.29;100.00
37202;BME280;37799;52.390;6.136;2023-09-08T04:25:46;101690.16;;;15.32;100.00
37202;BME280;37799;52.390;6.136;2023-09-08T04:28:12;101700.25;;;15.43;100.00
37202;BME280;37799;52.390;6.136;2023-09-08T04:30:37;101694.19;;;15.43;100.00
37202;BME280;37799;52.390;6.136;2023-09-08T04:33:02;101696.94;;;15.66;100.00
37202;BME280;37799;52.390;6.136;2023-09-08T04:35:28;101706.16;;;15.76;100.00
37202;BME280;37799;52.390;6.136;2023-09-08T04:37:53;101700.88;;;15.78;100.00
37202;BME280;37799;52.390;6.136;2023-09-08T04:40:19;101694.66;;;15.82;100.00
37202;BME280;37799;52.390;6.136;2023-09-08T04:42:44;101700.50;;;15.88;100.00
37202;BME280;37799;52.390;6.136;2023-09-08T04:45:09;101697.16;;;15.85;100.00
37202;BME280;37799;52.390;6.136;2023-09-08T04:47:35;101690.06;;;15.88;100.00
37202;BME280;37799;52.390;6.136;2023-09-08T04:50:00;101696.78;;;15.96;100.00
37202;BME280;37799;52.390;6.136;2023-09-08T04:52:26;101693.16;;;16.00;100.00
37202;BME280;37799;52.390;6.136;2023-09-08T04:54:51;101694.91;;;15.99;100.00
37202;BME280;37799;52.390;6.136;2023-09-08T04:57:16;101688.41;;;16.11;100.00
37202;BME280;37799;52.390;6.136;2023-09-08T04:59:42;101694.47;;;16.11;100.00
37202;BME280;37799;52.390;6.136;2023-09-08T05:02:07;101697.38;;;16.29;100.00
37202;BME280;37799;52.390;6.136;2023-09-08T05:04:32;101698.91;;;16.34;100.00
37202;BME280;37799;52.390;6.136;2023-09-08T05:06:58;101697.94;;;16.37;100.00
37202;BME280;37799;52.390;6.136;2023-09-08T05:09:23;101701.19;;;16.43;100.00
37202;BME280;37799;52.390;6.136;2023-09-08T05:11:48;101699.88;;;16.55;100.00
37202;BME280;37799;52.390;6.136;2023-09-08T05:14:14;101689.13;;;16.39;100.00
37202;BME280;37799;52.390;6.136;2023-09-08T05:16:39;101696.16;;;16.37;100.00
37202;BME280;37799;52.390;6.136;2023-09-08T05:19:10;101689.03;;;16.42;100.00
37202;BME280;37799;52.390;6.136;2023-09-08T05:21:36;101695.19;;;16.40;100.00
37202;BME280;37799;52.390;6.136;2023-09-08T05:24:02;101691.63;;;16.42;100.00
37202;BME280;37799;52.390;6.136;2023-09-08T05:26:27;101689.16;;;16.38;100.00
37202;BME280;37799;52.390;6.136;2023-09-08T05:28:53;101697.66;;;16.44;100.00
37202;BME280;37799;52.390;6.136;2023-09-08T05:31:18;101694.81;;;16.50;100.00
37202;BME280;37799;52.390;6.136;2023-09-08T05:33:43;101690.03;;;16.62;100.00
37202;BME280;37799;52.390;6.136;2023-09-08T05:36:09;101690.16;;;16.59;100.00
37202;BME280;37799;52.390;6.136;2023-09-08T05:38:34;101686.84;;;16.53;100.00
37202;BME280;37799;52.390;6.136;2023-09-08T05:40:59;101687.75;;;16.52;100.00
37202;BME280;37799;52.390;6.136;2023-09-08T05:43:25;101695.56;;;16.54;100.00
37202;BME280;37799;52.390;6.136;2023-09-08T05:45:50;101691.84;;;16.60;100.00
37202;BME280;37799;52.390;6.136;2023-09-08T05:48:16;101696.50;;;16.51;100.00
37202;BME280;37799;52.390;6.136;2023-09-08T05:50:41;101700.94;;;16.49;100.00
37202;BME280;37799;52.390;6.136;2023-09-08T05:53:07;101703.56;;;16.49;100.00
37202;BME280;37799;52.390;6.136;2023-09-08T05:55:32;101700.03;;;16.50;100.00
37202;BME280;37799;52.390;6.136;2023-09-08T05:57:57;101704.34;;;16.51;100.00
37202;BME280;37799;52.390;6.136;2023-09-08T06:00:22;101702.53;;;16.53;100.00
37202;BME280;37799;52.390;6.136;2023-09-08T06:02:48;101706.97;;;16.51;100.00
37202;BME280;37799;52.390;6.136;2023-09-08T06:05:13;101700.56;;;16.60;100.00
37202;BME280;37799;52.390;6.136;2023-09-08T06:07:39;101706.41;;;16.67;100.00
37202;BME280;37799;52.390;6.136;2023-09-08T06:10:04;101701.78;;;16.75;100.00
37202;BME280;37799;52.390;6.136;2023-09-08T06:12:30;101706.16;;;16.74;100.00
37202;BME280;37799;52.390;6.136;2023-09-08T06:14:55;101710.25;;;16.82;100.00
37202;BME280;37799;52.390;6.136;2023-09-08T06:17:20;101709.22;;;16.86;100.00
37202;BME280;37799;52.390;6.136;2023-09-08T06:19:46;101709.81;;;16.92;100.00
37202;BME280;37799;52.390;6.136;2023-09-08T06:22:11;101708.69;;;16.99;100.00
37202;BME280;37799;52.390;6.136;2023-09-08T06:24:36;101711.81;;;17.09;100.00
37202;BME280;37799;52.390;6.136;2023-09-08T06:27:02;101710.69;;;17.15;100.00
37202;BME280;37799;52.390;6.136;2023-09-08T06:29:27;101711.69;;;17.34;100.00
37202;BME280;37799;52.390;6.136;2023-09-08T06:31:53;101715.50;;;17.47;100.00
37202;BME280;37799;52.390;6.136;2023-09-08T06:34:18;101712.47;;;17.58;100.00
37202;BME280;37799;52.390;6.136;2023-09-08T06:36:47;101709.56;;;17.64;100.00
37202;BME280;37799;52.390;6.136;2023-09-08T06:39:12;101711.91;;;17.72;100.00
37202;BME280;37799;52.390;6.136;2023-09-08T06:41:38;101715.97;;;17.79;100.00
37202;BME280;37799;52.390;6.136;2023-09-08T06:44:03;101716.41;;;18.09;100.00
37202;BME280;37799;52.390;6.136;2023-09-08T06:46:29;101723.53;;;18.66;100.00
37202;BME280;37799;52.390;6.136;2023-09-08T06:48:54;101729.22;;;19.31;100.00
37202;BME280;37799;52.390;6.136;2023-09-08T06:51:19;101732.34;;;19.92;100.00
37202;BME280;37799;52.390;6.136;2023-09-08T06:53:53;101730.28;;;20.49;100.00
37202;BME280;37799;52.390;6.136;2023-09-08T06:56:19;101731.50;;;20.91;100.00
37202;BME280;37799;52.390;6.136;2023-09-08T06:58:45;101727.41;;;21.17;100.00
37202;BME280;37799;52.390;6.136;2023-09-08T07:01:10;101726.31;;;21.53;100.00
37202;BME280;37799;52.390;6.136;2023-09-08T07:03:35;101735.53;;;22.05;100.00
37202;BME280;37799;52.390;6.136;2023-09-08T07:06:02;101735.44;;;22.64;100.00
37202;BME280;37799;52.390;6.136;2023-09-08T07:08:27;101744.22;;;22.79;100.00
37202;BME280;37799;52.390;6.136;2023-09-08T07:10:53;101747.22;;;23.28;100.00
37202;BME280;37799;52.390;6.136;2023-09-08T07:13:19;101747.09;;;23.71;100.00
37202;BME280;37799;52.390;6.136;2023-09-08T07:15:44;101753.59;;;24.18;100.00
37202;BME280;37799;52.390;6.136;2023-09-08T07:18:09;101754.22;;;24.72;100.00
37202;BME280;37799;52.390;6.136;2023-09-08T07:20:35;101751.13;;;24.91;100.00
37202;BME280;37799;52.390;6.136;2023-09-08T07:23:00;101754.38;;;24.94;100.00
37202;BME280;37799;52.390;6.136;2023-09-08T07:25:25;101755.84;;;25.35;100.00
37202;BME280;37799;52.390;6.136;2023-09-08T07:27:51;101752.59;;;25.79;100.00
37202;BME280;37799;52.390;6.136;2023-09-08T07:30:19;101751.69;;;26.14;100.00
37202;BME280;37799;52.390;6.136;2023-09-08T07:32:44;101751.75;;;26.48;100.00
37202;BME280;37799;52.390;6.136;2023-09-08T07:35:09;101752.44;;;26.94;100.00
37202;BME280;37799;52.390;6.136;2023-09-08T07:37:39;101757.00;;;27.26;100.00
37202;BME280;37799;52.390;6.136;2023-09-08T07:40:06;101759.78;;;27.24;100.00
37202;BME280;37799;52.390;6.136;2023-09-08T07:42:31;101757.75;;;27.17;100.00
37202;BME280;37799;52.390;6.136;2023-09-08T07:44:56;101753.59;;;27.35;100.00
37202;BME280;37799;52.390;6.136;2023-09-08T07:47:22;101741.19;;;27.45;100.00
37202;BME280;37799;52.390;6.136;2023-09-08T07:49:47;101754.97;;;27.50;100.00
37202;BME280;37799;52.390;6.136;2023-09-08T07:52:13;101757.94;;;27.36;100.00
37202;BME280;37799;52.390;6.136;2023-09-08T07:54:38;101751.78;;;27.68;100.00
37202;BME280;37799;52.390;6.136;2023-09-08T07:57:04;101753.84;;;27.85;100.00
37202;BME280;37799;52.390;6.136;2023-09-08T07:59:29;101752.91;;;28.28;100.00
37202;BME280;37799;52.390;6.136;2023-09-08T08:01:55;101751.47;;;28.03;100.00
37202;BME280;37799;52.390;6.136;2023-09-08T08:04:20;101758.78;;;28.10;100.00
37202;BME280;37799;52.390;6.136;2023-09-08T08:06:45;101754.78;;;27.95;100.00
37202;BME280;37799;52.390;6.136;2023-09-08T08:09:12;101756.81;;;28.12;100.00
37202;BME280;37799;52.390;6.136;2023-09-08T08:11:38;101758.13;;;28.69;100.00
37202;BME280;37799;52.390;6.136;2023-09-08T08:14:03;101751.44;;;28.85;100.00
37202;BME280;37799;52.390;6.136;2023-09-08T08:16:28;101754.66;;;28.78;97.58
37202;BME280;37799;52.390;6.136;2023-09-08T08:18:54;101756.28;;;28.70;99.82
37202;BME280;37799;52.390;6.136;2023-09-08T08:21:19;101761.56;;;28.91;100.00
37202;BME280;37799;52.390;6.136;2023-09-08T08:23:44;101761.19;;;29.05;96.95
37202;BME280;37799;52.390;6.136;2023-09-08T08:26:10;101750.28;;;29.18;95.43
37202;BME280;37799;52.390;6.136;2023-09-08T08:28:35;101750.97;;;29.20;94.42
37202;BME280;37799;52.390;6.136;2023-09-08T08:31:01;101756.03;;;29.42;91.65
37202;BME280;37799;52.390;6.136;2023-09-08T08:33:26;101754.78;;;29.65;90.82
37202;BME280;37799;52.390;6.136;2023-09-08T08:35:53;101758.13;;;29.97;87.58
37202;BME280;37799;52.390;6.136;2023-09-08T08:38:19;101757.69;;;29.91;88.67
37202;BME280;37799;52.390;6.136;2023-09-08T08:40:44;101758.69;;;30.10;84.60
37202;BME280;37799;52.390;6.136;2023-09-08T08:43:10;101762.47;;;30.17;89.58
37202;BME280;37799;52.390;6.136;2023-09-08T08:45:38;101761.81;;;30.42;86.24
37202;BME280;37799;52.390;6.136;2023-09-08T08:48:05;101760.63;;;30.92;86.25
37202;BME280;37799;52.390;6.136;2023-09-08T08:50:35;101759.09;;;31.52;79.19
37202;BME280;37799;52.390;6.136;2023-09-08T08:53:01;101752.69;;;31.89;76.92
37202;BME280;37799;52.390;6.136;2023-09-08T08:55:29;101764.88;;;31.65;73.41
37202;BME280;37799;52.390;6.136;2023-09-08T08:58:01;101753.66;;;31.44;76.21
37202;BME280;37799;52.390;6.136;2023-09-08T09:00:28;101764.22;;;31.28;78.02
37202;BME280;37799;52.390;6.136;2023-09-08T09:02:54;101764.84;;;31.39;73.56
37202;BME280;37799;52.390;6.136;2023-09-08T09:05:21;101761.56;;;31.72;75.15
37202;BME280;37799;52.390;6.136;2023-09-08T09:07:47;101761.03;;;32.30;72.09
37202;BME280;37799;52.390;6.136;2023-09-08T09:10:13;101756.13;;;31.99;70.55
37202;BME280;37799;52.390;6.136;2023-09-08T09:12:39;101760.31;;;32.27;69.10
37202;BME280;37799;52.390;6.136;2023-09-08T09:15:05;101759.53;;;32.69;69.21
37202;BME280;37799;52.390;6.136;2023-09-08T09:17:35;101758.88;;;32.75;63.97
37202;BME280;37799;52.390;6.136;2023-09-08T09:22:46;101764.69;;;32.63;62.93
37202;BME280;37799;52.390;6.136;2023-09-08T09:25:25;101760.94;;;32.81;65.14
37202;BME280;37799;52.390;6.136;2023-09-08T09:27:55;101765.50;;;32.89;66.11
37202;BME280;37799;52.390;6.136;2023-09-08T09:30:21;101760.16;;;32.63;62.09
37202;BME280;37799;52.390;6.136;2023-09-08T09:32:47;101761.91;;;32.80;63.88
37202;BME280;37799;52.390;6.136;2023-09-08T09:35:15;101754.28;;;33.02;64.55
37202;BME280;37799;52.390;6.136;2023-09-08T09:37:41;101760.81;;;32.99;62.08
37202;BME280;37799;52.390;6.136;2023-09-08T09:40:07;101753.63;;;33.00;61.80
37202;BME280;37799;52.390;6.136;2023-09-08T09:42:33;101752.03;;;33.39;59.55
37202;BME280;37799;52.390;6.136;2023-09-08T09:45:00;101751.69;;;33.67;57.10
37202;BME280;37799;52.390;6.136;2023-09-08T09:47:26;101755.41;;;33.90;58.42
37202;BME280;37799;52.390;6.136;2023-09-08T09:49:52;101759.34;;;33.13;56.17
37202;BME280;37799;52.390;6.136;2023-09-08T09:52:23;101751.31;;;33.29;55.58
37202;BME280;37799;52.390;6.136;2023-09-08T09:54:49;101759.03;;;33.24;57.59
37202;BME280;37799;52.390;6.136;2023-09-08T09:57:20;101751.69;;;33.42;60.21
37202;BME280;37799;52.390;6.136;2023-09-08T09:59:46;101760.41;;;33.77;58.18
37202;BME280;37799;52.390;6.136;2023-09-08T10:02:17;101760.78;;;33.90;56.32
37202;BME280;37799;52.390;6.136;2023-09-08T10:04:45;101751.00;;;33.97;57.05
37202;BME280;37799;52.390;6.136;2023-09-08T10:07:10;101747.66;;;33.95;55.66
37202;BME280;37799;52.390;6.136;2023-09-08T10:09:36;101750.50;;;33.94;55.08
37202;BME280;37799;52.390;6.136;2023-09-08T10:12:05;101750.16;;;33.97;56.95
37202;BME280;37799;52.390;6.136;2023-09-08T10:14:36;101760.06;;;34.13;54.68
37202;BME280;37799;52.390;6.136;2023-09-08T10:17:02;101752.00;;;34.60;57.97
37202;BME280;37799;52.390;6.136;2023-09-08T10:19:30;101754.28;;;35.10;53.29
37202;BME280;37799;52.390;6.136;2023-09-08T10:21:59;101760.50;;;35.34;51.44
37202;BME280;37799;52.390;6.136;2023-09-08T10:24:32;101752.75;;;35.39;50.04
37202;BME280;37799;52.390;6.136;2023-09-08T10:27:08;101748.75;;;35.72;49.89
37202;BME280;37799;52.390;6.136;2023-09-08T10:29:35;101750.19;;;35.83;49.88
37202;BME280;37799;52.390;6.136;2023-09-08T10:32:01;101744.59;;;35.85;48.34
37202;BME280;37799;52.390;6.136;2023-09-08T10:34:28;101743.66;;;35.78;50.07
37202;BME280;37799;52.390;6.136;2023-09-08T10:36:54;101742.06;;;35.68;48.49
37202;BME280;37799;52.390;6.136;2023-09-08T10:39:34;101740.31;;;35.75;47.00
37202;BME280;37799;52.390;6.136;2023-09-08T10:47:26;101749.47;;;35.66;46.50
37202;BME280;37799;52.390;6.136;2023-09-08T10:49:52;101741.50;;;35.58;48.73
37202;BME280;37799;52.390;6.136;2023-09-08T10:52:23;101741.78;;;35.17;49.25
37202;BME280;37799;52.390;6.136;2023-09-08T10:54:53;101740.97;;;35.17;47.27
37202;BME280;37799;52.390;6.136;2023-09-08T10:57:24;101734.34;;;35.65;48.24
37202;BME280;37799;52.390;6.136;2023-09-08T10:59:54;101746.06;;;36.10;44.57
37202;BME280;37799;52.390;6.136;2023-09-08T11:02:49;101743.25;;;35.89;43.80
37202;BME280;37799;52.390;6.136;2023-09-08T11:05:19;101740.47;;;35.97;44.85
37202;BME280;37799;52.390;6.136;2023-09-08T11:07:47;101746.78;;;36.04;44.87
37202;BME280;37799;52.390;6.136;2023-09-08T11:10:14;101750.63;;;36.39;44.82
37202;BME280;37799;52.390;6.136;2023-09-08T11:12:40;101752.84;;;36.50;41.87
37202;BME280;37799;52.390;6.136;2023-09-08T11:15:06;101749.00;;;36.30;44.12
37202;BME280;37799;52.390;6.136;2023-09-08T11:17:34;101741.31;;;35.97;41.26
37202;BME280;37799;52.390;6.136;2023-09-08T11:20:01;101737.03;;;36.18;43.60
37202;BME280;37799;52.390;6.136;2023-09-08T11:22:26;101744.47;;;36.01;43.02
37202;BME280;37799;52.390;6.136;2023-09-08T11:24:53;101731.81;;;36.01;43.46
37202;BME280;37799;52.390;6.136;2023-09-08T11:27:22;101738.03;;;36.02;42.56
37202;BME280;37799;52.390;6.136;2023-09-08T11:29:48;101731.81;;;36.01;45.06
37202;BME280;37799;52.390;6.136;2023-09-08T11:32:14;101734.31;;;36.03;43.83
37202;BME280;37799;52.390;6.136;2023-09-08T11:34:39;101737.25;;;35.79;45.19
37202;BME280;37799;52.390;6.136;2023-09-08T11:37:14;101732.22;;;35.75;43.45
37202;BME280;37799;52.390;6.136;2023-09-08T11:39:42;101736.75;;;35.98;44.50
37202;BME280;37799;52.390;6.136;2023-09-08T11:42:08;101730.97;;;36.01;43.73
37202;BME280;37799;52.390;6.136;2023-09-08T11:44:35;101728.00;;;35.96;43.52
37202;BME280;37799;52.390;6.136;2023-09-08T11:47:06;101729.13;;;36.16;42.94
37202;BME280;37799;52.390;6.136;2023-09-08T11:49:34;101723.28;;;35.98;41.89
37202;BME280;37799;52.390;6.136;2023-09-08T11:51:59;101721.91;;;35.79;42.60
37202;BME280;37799;52.390;6.136;2023-09-08T11:54:24;101718.53;;;35.47;42.15
37202;BME280;37799;52.390;6.136;2023-09-08T11:56:50;101721.41;;;35.46;43.95
37202;BME280;37799;52.390;6.136;2023-09-08T11:59:17;101723.19;;;35.31;43.21
37202;BME280;37799;52.390;6.136;2023-09-08T12:01:43;101723.78;;;34.95;47.95
37202;BME280;37799;52.390;6.136;2023-09-08T12:04:17;101727.34;;;35.10;46.04
37202;BME280;37799;52.390;6.136;2023-09-08T12:06:43;101719.66;;;35.07;46.00
37202;BME280;37799;52.390;6.136;2023-09-08T12:09:08;101730.53;;;34.83;44.74
37202;BME280;37799;52.390;6.136;2023-09-08T12:11:34;101711.59;;;34.37;46.08
37202;BME280;37799;52.390;6.136;2023-09-08T12:14:07;101711.06;;;33.86;48.80
37202;BME280;37799;52.390;6.136;2023-09-08T12:16:33;101707.69;;;33.68;49.53
37202;BME280;37799;52.390;6.136;2023-09-08T12:18:59;101708.38;;;33.46;49.17
37202;BME280;37799;52.390;6.136;2023-09-08T12:21:24;101705.16;;;33.01;52.22
37202;BME280;37799;52.390;6.136;2023-09-08T12:23:51;101702.31;;;32.95;54.28
37202;BME280;37799;52.390;6.136;2023-09-08T12:26:17;101701.59;;;32.93;54.86
37202;BME280;37799;52.390;6.136;2023-09-08T12:28:43;101708.25;;;32.80;54.63
37202;BME280;37799;52.390;6.136;2023-09-08T12:31:09;101703.81;;;32.55;55.27
37202;BME280;37799;52.390;6.136;2023-09-08T12:33:35;101698.16;;;32.58;54.38
37202;BME280;37799;52.390;6.136;2023-09-08T12:36:21;101702.97;;;32.46;53.88
37202;BME280;37799;52.390;6.136;2023-09-08T12:38:50;101697.16;;;32.59;55.46
37202;BME280;37799;52.390;6.136;2023-09-08T12:41:16;101693.47;;;32.68;56.21
37202;BME280;37799;52.390;6.136;2023-09-08T12:43:41;101693.84;;;32.73;57.09
37202;BME280;37799;52.390;6.136;2023-09-08T12:46:07;101692.97;;;32.65;52.84